Terminal Aerodrome Forecast
Issued by NWS Chicago, IL

Home | Current Version | Previous Version | Graphics & Text | Print | Product List | Glossary On
Versions: 1 2 3 4 5 6 7 8 9 10 11 12 13 14 15 16 17 18 19 20 21 22 23 24 25 26 27 28 29 30 31 32 33 34 35
000
FTUS43 KLOT 271400 AAA
TAFRFD
TAF AMD
KRFD 271403Z 2714/2812 01007KT 4SM BR BKN010 OVC020
      TEMPO 2714/2715 2SM BR OVC009
     FM271600 05009KT 6SM BR OVC012
     FM272200 07005KT P6SM SCT030 SCT250
     FM280300 13003KT P6SM SCT250
     FM280700 15003KT 4SM BR SCT250=

USA.gov is the U.S. government's official web portal to all federal, state and local government web resources and services.